createdAt,value
2019-05-26T00:04:03.790Z,11.20
2019-05-26T00:10:48.997Z,11.20
2019-05-26T00:17:33.882Z,11.20
2019-05-26T00:24:18.848Z,11.20
2019-05-26T00:31:03.819Z,11.20
2019-05-26T00:37:50.545Z,11.10
2019-05-26T00:44:36.298Z,11.10
2019-05-26T00:51:21.389Z,11.00
2019-05-26T00:58:06.370Z,11.00
2019-05-26T01:04:51.257Z,11.10
2019-05-26T01:11:36.283Z,11.10
2019-05-26T01:18:22.200Z,11.10
2019-05-26T01:25:08.017Z,11.10
2019-05-26T01:31:53.032Z,11.00
2019-05-26T01:38:38.853Z,11.00
2019-05-26T01:45:23.794Z,10.90
2019-05-26T01:52:08.710Z,10.90
2019-05-26T01:58:54.711Z,10.80
2019-05-26T02:05:39.643Z,10.70
2019-05-26T02:12:24.871Z,10.60
2019-05-26T02:19:09.750Z,10.50
2019-05-26T02:25:54.848Z,10.50
2019-05-26T02:32:39.991Z,10.50
2019-05-26T02:39:24.899Z,10.40
2019-05-26T02:46:10.000Z,10.40
2019-05-26T02:52:54.871Z,10.30
2019-05-26T02:59:39.826Z,10.30
2019-05-26T03:06:26.016Z,10.20
2019-05-26T03:13:13.260Z,10.10
2019-05-26T03:20:01.020Z,10.10
2019-05-26T03:26:47.854Z,10.00
2019-05-26T03:33:33.034Z,10.00
2019-05-26T03:40:18.140Z,10.00
2019-05-26T03:47:03.430Z,10.00
2019-05-26T03:53:48.375Z,10.10
2019-05-26T04:00:33.626Z,10.20
2019-05-26T04:07:18.763Z,10.30
2019-05-26T04:14:04.284Z,10.50
2019-05-26T04:20:49.235Z,10.60
2019-05-26T04:27:34.324Z,10.60
2019-05-26T04:34:19.283Z,10.70
2019-05-26T04:41:04.848Z,11.00
2019-05-26T04:47:49.868Z,11.10
2019-05-26T04:54:34.814Z,11.30
2019-05-26T05:01:19.701Z,11.50
2019-05-26T05:08:05.064Z,16.30
2019-05-26T05:14:50.135Z,20.70
2019-05-26T05:21:35.461Z,20.70
2019-05-26T05:28:20.566Z,22.60
2019-05-26T05:35:08.887Z,23.90
2019-05-26T05:41:54.031Z,26.00
2019-05-26T05:48:39.468Z,25.40
2019-05-26T05:55:24.423Z,26.10
2019-05-26T06:02:09.293Z,27.90
2019-05-26T06:08:54.310Z,30.40
2019-05-26T06:15:39.339Z,31.90
2019-05-26T06:22:24.223Z,32.00
2019-05-26T06:29:09.245Z,31.90
2019-05-26T06:35:54.286Z,32.80
2019-05-26T06:42:39.223Z,33.70
2019-05-26T06:49:24.599Z,34.20
2019-05-26T06:56:11.555Z,33.70
2019-05-26T07:02:56.504Z,36.20
2019-05-26T07:09:41.473Z,36.50
2019-05-26T07:16:37.629Z,37.30
2019-05-26T07:23:13.965Z,37.80
2019-05-26T07:29:58.834Z,37.80
2019-05-26T07:36:43.713Z,38.40
2019-05-26T07:43:28.889Z,39.60
2019-05-26T07:50:14.454Z,37.80
2019-05-26T07:56:59.332Z,36.40
2019-05-26T08:03:44.271Z,37.00
2019-05-26T08:10:29.219Z,37.10
2019-05-26T08:17:14.274Z,37.10
2019-05-26T08:23:59.317Z,37.30
2019-05-26T08:30:44.515Z,36.20
2019-05-26T08:37:29.514Z,36.70
2019-05-26T08:44:14.602Z,34.70
2019-05-26T08:50:59.562Z,34.90
2019-05-26T08:57:45.023Z,35.80
2019-05-26T09:04:29.947Z,34.30
2019-05-26T09:11:14.881Z,35.20
2019-05-26T09:18:00.019Z,36.10
2019-05-26T09:24:44.934Z,36.60
2019-05-26T09:31:34.027Z,36.60
2019-05-26T09:38:17.419Z,36.10
2019-05-26T09:45:02.301Z,36.50
2019-05-26T09:51:47.698Z,36.60
2019-05-26T09:58:33.682Z,36.90
2019-05-26T10:05:18.834Z,36.30
2019-05-26T10:12:04.026Z,34.90
2019-05-26T10:18:50.331Z,34.60
2019-05-26T10:25:35.545Z,35.10
2019-05-26T10:32:20.495Z,31.30
2019-05-26T10:39:08.138Z,33.50
2019-05-26T10:45:53.071Z,31.90
2019-05-26T10:52:38.116Z,28.80
2019-05-26T10:59:23.035Z,26.60
2019-05-26T11:06:07.970Z,25.50
2019-05-26T11:12:52.831Z,25.50
2019-05-26T11:19:37.698Z,25.30
2019-05-26T11:26:22.696Z,24.80
2019-05-26T11:33:07.649Z,24.60
2019-05-26T11:39:54.556Z,24.90
2019-05-26T11:46:39.443Z,25.10
2019-05-26T11:53:24.754Z,26.40
2019-05-26T12:00:12.466Z,24.70
2019-05-26T12:06:57.592Z,24.60
2019-05-26T12:13:42.594Z,24.90
2019-05-26T12:20:27.867Z,24.60
2019-05-26T12:27:12.816Z,24.20
2019-05-26T12:33:58.034Z,24.70
2019-05-26T12:40:43.307Z,25.70
2019-05-26T12:47:28.356Z,26.40
2019-05-26T12:54:13.856Z,27.10
2019-05-26T13:01:02.113Z,26.70
2019-05-26T13:07:47.236Z,25.00
2019-05-26T13:14:32.241Z,24.10
2019-05-26T13:21:17.185Z,23.70
2019-05-26T13:28:02.155Z,24.10
2019-05-26T13:34:47.099Z,23.90
2019-05-26T13:41:32.054Z,23.90
2019-05-26T13:48:17.299Z,23.60
2019-05-26T13:55:03.059Z,23.40
2019-05-26T14:01:48.467Z,23.70
2019-05-26T14:08:33.600Z,24.40
2019-05-26T14:15:18.747Z,24.20
2019-05-26T14:22:03.631Z,23.80
2019-05-26T14:28:48.585Z,23.60
2019-05-26T14:35:33.626Z,23.50
2019-05-26T14:42:18.562Z,23.30
2019-05-26T14:49:05.677Z,23.50
2019-05-26T14:55:50.780Z,23.50
2019-05-26T15:02:35.783Z,23.50
2019-05-26T15:09:25.102Z,23.80
2019-05-26T15:16:10.237Z,23.20
2019-05-26T15:22:54.007Z,23.50
2019-05-26T15:29:38.883Z,23.90
2019-05-26T15:36:23.852Z,23.90
2019-05-26T15:43:09.798Z,24.10
2019-05-26T15:49:54.912Z,24.10
2019-05-26T15:56:40.129Z,24.20
2019-05-26T16:03:25.147Z,23.70
2019-05-26T16:10:10.332Z,23.80
2019-05-26T16:16:55.526Z,23.40
2019-05-26T16:23:40.683Z,23.20
2019-05-26T16:30:25.543Z,23.10
2019-05-26T16:37:10.861Z,23.10
2019-05-26T16:43:56.005Z,23.00
2019-05-26T16:50:41.267Z,22.60
2019-05-26T16:57:26.319Z,22.60
2019-05-26T17:04:11.346Z,22.90
2019-05-26T17:10:56.319Z,22.90
2019-05-26T17:17:41.187Z,22.90
2019-05-26T17:24:26.211Z,22.80
2019-05-26T17:31:11.147Z,22.80
2019-05-26T17:37:56.075Z,22.50
2019-05-26T17:44:41.088Z,22.30
2019-05-26T17:51:26.091Z,21.90
2019-05-26T17:58:12.088Z,21.60
2019-05-26T18:04:56.979Z,21.50
2019-05-26T18:11:41.940Z,21.20
2019-05-26T18:18:26.802Z,21.00
2019-05-26T18:25:12.015Z,20.70
2019-05-26T18:31:56.984Z,20.50
2019-05-26T18:38:41.999Z,20.40
2019-05-26T18:45:26.945Z,20.20
2019-05-26T18:52:12.143Z,19.90
2019-05-26T18:58:57.020Z,19.50
2019-05-26T19:05:44.021Z,19.10
2019-05-26T19:12:29.890Z,18.70
2019-05-26T19:19:14.851Z,18.40
2019-05-26T19:26:00.064Z,18.10
2019-05-26T19:32:46.674Z,17.70
2019-05-26T19:39:31.545Z,17.40
2019-05-26T19:46:16.663Z,17.10
2019-05-26T19:53:01.656Z,17.00
2019-05-26T19:59:46.983Z,16.70
2019-05-26T20:06:32.065Z,16.50
2019-05-26T20:13:17.344Z,16.40
2019-05-26T20:20:02.356Z,16.20
2019-05-26T20:26:47.414Z,16.00
2019-05-26T20:33:32.326Z,15.90
2019-05-26T20:40:17.649Z,15.90
2019-05-26T20:47:02.677Z,15.80
2019-05-26T20:53:47.605Z,15.60
2019-05-26T21:00:32.726Z,15.40
2019-05-26T21:07:17.733Z,15.30
2019-05-26T21:14:02.720Z,15.20
2019-05-26T21:20:47.799Z,15.00
2019-05-26T21:27:32.940Z,14.90
2019-05-26T21:34:18.244Z,14.70
2019-05-26T21:41:03.252Z,14.60
2019-05-26T21:47:48.233Z,14.60
2019-05-26T21:54:33.558Z,14.60
2019-05-26T22:01:20.800Z,14.40
2019-05-26T22:08:05.752Z,14.30
2019-05-26T22:14:53.820Z,14.20
2019-05-26T22:21:39.571Z,14.10
2019-05-26T22:28:25.581Z,14.20
2019-05-26T22:35:14.163Z,14.10
2019-05-26T22:42:00.246Z,14.20
2019-05-26T22:48:45.139Z,14.10
2019-05-26T22:55:30.498Z,14.00
2019-05-26T23:02:15.433Z,13.80
2019-05-26T23:09:00.282Z,13.70
2019-05-26T23:15:45.249Z,13.60
2019-05-26T23:22:30.250Z,13.50
2019-05-26T23:29:15.498Z,13.40
2019-05-26T23:36:00.707Z,13.40
2019-05-26T23:42:45.579Z,13.20
2019-05-26T23:49:32.060Z,13.20
2019-05-26T23:56:16.942Z,13.20
